EJU7627 LPPT-LFBD
Flight info
| Callsign | EJU7627 |
|---|---|
| Flight time | N/A |
| Altitude | 38000 |
| Route | IXIDA DCT TOSDI DCT ZMR N976 DGO/N0406F280 L176 SSN P181 URUNA DCT BTZ DCT VAVIX |
| Aircraft | A320/M-SDE3FGHIRWY/LB1 |
Departure
| Time | N/A |
|---|---|
| Airport | Lisbon Humberto Delgado Airport (LPPT) |
Arrival
| Time | 2026-05-03 21:18 |
|---|---|
| Airport | Bordeaux–Mérignac Airport (LFBD) |
| Time | Latitude | Longitude | Altitude | Speed | Heading |
|---|---|---|---|---|---|
| 2026-05-03 20:15 | 40.18353 | -7.37481 | 33937 ft | 516 kts | 43° |
| 2026-05-03 20:15 | 40.20877 | -7.34146 | 34225 ft | 516 kts | 43° |
| 2026-05-03 20:15 | 40.23400 | -7.30812 | 34532 ft | 515 kts | 43° |
| 2026-05-03 20:15 | 40.25922 | -7.27479 | 34853 ft | 514 kts | 43° |
| 2026-05-03 20:16 | 40.28433 | -7.24156 | 35169 ft | 513 kts | 43° |
| 2026-05-03 20:16 | 40.30932 | -7.20842 | 35471 ft | 512 kts | 43° |
| 2026-05-03 20:16 | 40.33431 | -7.17518 | 35783 ft | 511 kts | 43° |
| 2026-05-03 20:16 | 40.35919 | -7.14200 | 36071 ft | 510 kts | 43° |
| 2026-05-03 20:17 | 40.38401 | -7.10888 | 36358 ft | 509 kts | 43° |
| 2026-05-03 20:17 | 40.40879 | -7.07582 | 36638 ft | 508 kts | 43° |
| 2026-05-03 20:17 | 40.43352 | -7.04281 | 36913 ft | 507 kts | 43° |
| 2026-05-03 20:17 | 40.45814 | -7.00992 | 37186 ft | 506 kts | 43° |
| 2026-05-03 20:18 | 40.48280 | -6.97691 | 37450 ft | 505 kts | 43° |
| 2026-05-03 20:18 | 40.50733 | -6.94399 | 37718 ft | 504 kts | 43° |
| 2026-05-03 20:18 | 40.53180 | -6.91110 | 37958 ft | 503 kts | 43° |
| 2026-05-03 20:19 | 40.58065 | -6.84550 | 38011 ft | 502 kts | 43° |
| 2026-05-03 20:19 | 40.62915 | -6.78038 | 38015 ft | 501 kts | 43° |
| 2026-05-03 20:20 | 40.67782 | -6.71462 | 38008 ft | 501 kts | 43° |
| 2026-05-03 20:20 | 40.72645 | -6.64883 | 38010 ft | 501 kts | 43° |
| 2026-05-03 20:21 | 40.77504 | -6.58297 | 38016 ft | 501 kts | 44° |
| 2026-05-03 20:21 | 40.82358 | -6.51697 | 38016 ft | 501 kts | 44° |
| 2026-05-03 20:22 | 40.87216 | -6.45094 | 38023 ft | 501 kts | 44° |
| 2026-05-03 20:22 | 40.92061 | -6.38486 | 38024 ft | 501 kts | 44° |
| 2026-05-03 20:23 | 40.96907 | -6.31859 | 38023 ft | 501 kts | 44° |
| 2026-05-03 20:23 | 41.01820 | -6.25326 | 38024 ft | 500 kts | 40° |
| 2026-05-03 20:24 | 41.06986 | -6.19174 | 38028 ft | 499 kts | 41° |
| 2026-05-03 20:24 | 41.09267 | -6.15697 | 38024 ft | 501 kts | 52° |
| 2026-05-03 20:24 | 41.11335 | -6.11973 | 38025 ft | 502 kts | 53° |
| 2026-05-03 20:25 | 41.15418 | -6.04539 | 38015 ft | 502 kts | 53° |
| 2026-05-03 20:25 | 41.19505 | -5.97030 | 38017 ft | 502 kts | 53° |
| 2026-05-03 20:26 | 41.23598 | -5.89513 | 38014 ft | 502 kts | 53° |
| 2026-05-03 20:26 | 41.27703 | -5.81988 | 38012 ft | 502 kts | 53° |
| 2026-05-03 20:27 | 41.31798 | -5.74468 | 38005 ft | 502 kts | 53° |
| 2026-05-03 20:27 | 41.35892 | -5.66933 | 38007 ft | 502 kts | 53° |
| 2026-05-03 20:28 | 41.39979 | -5.59387 | 38007 ft | 502 kts | 53° |
| 2026-05-03 20:28 | 41.44053 | -5.51829 | 38008 ft | 502 kts | 53° |
| 2026-05-03 20:29 | 41.48123 | -5.44268 | 38007 ft | 502 kts | 53° |
| 2026-05-03 20:29 | 41.52189 | -5.36702 | 38005 ft | 502 kts | 53° |
| 2026-05-03 20:30 | 41.56242 | -5.29138 | 38007 ft | 501 kts | 53° |
| 2026-05-03 20:30 | 41.60298 | -5.21560 | 38002 ft | 501 kts | 53° |
| 2026-05-03 20:31 | 41.64338 | -5.13974 | 37997 ft | 501 kts | 54° |
| 2026-05-03 20:31 | 41.68369 | -5.06381 | 37991 ft | 500 kts | 54° |
| 2026-05-03 20:32 | 41.72394 | -4.98784 | 37991 ft | 500 kts | 54° |
| 2026-05-03 20:32 | 41.76414 | -4.91184 | 37993 ft | 500 kts | 54° |
| 2026-05-03 20:33 | 41.80399 | -4.83642 | 37992 ft | 500 kts | 54° |
| 2026-05-03 20:33 | 41.84405 | -4.76038 | 37992 ft | 499 kts | 54° |
| 2026-05-03 20:34 | 41.88412 | -4.68416 | 37994 ft | 499 kts | 54° |
| 2026-05-03 20:34 | 41.92409 | -4.60808 | 37989 ft | 499 kts | 54° |
| 2026-05-03 20:35 | 41.96397 | -4.53177 | 37990 ft | 499 kts | 54° |
| 2026-05-03 20:35 | 42.00377 | -4.45531 | 37994 ft | 499 kts | 54° |
| 2026-05-03 20:36 | 42.04343 | -4.37891 | 37992 ft | 499 kts | 54° |
| 2026-05-03 20:36 | 42.08310 | -4.30234 | 37992 ft | 498 kts | 54° |
| 2026-05-03 20:37 | 42.12270 | -4.22580 | 37990 ft | 498 kts | 54° |
| 2026-05-03 20:37 | 42.16228 | -4.14925 | 37988 ft | 498 kts | 54° |
| 2026-05-03 20:38 | 42.20171 | -4.07263 | 37992 ft | 497 kts | 55° |
| 2026-05-03 20:38 | 42.24105 | -3.99588 | 37990 ft | 497 kts | 55° |
| 2026-05-03 20:39 | 42.28009 | -3.91965 | 37990 ft | 497 kts | 55° |
| 2026-05-03 20:39 | 42.31928 | -3.84287 | 37988 ft | 496 kts | 55° |
| 2026-05-03 20:40 | 42.35843 | -3.76600 | 37986 ft | 496 kts | 55° |
| 2026-05-03 20:40 | 42.39753 | -3.68913 | 37990 ft | 496 kts | 55° |
| 2026-05-03 20:41 | 42.43663 | -3.61212 | 37988 ft | 496 kts | 55° |
| 2026-05-03 20:41 | 42.47557 | -3.53502 | 37991 ft | 496 kts | 56° |
| 2026-05-03 20:42 | 42.51446 | -3.45787 | 37990 ft | 496 kts | 56° |
| 2026-05-03 20:42 | 42.55329 | -3.38071 | 37992 ft | 495 kts | 56° |
| 2026-05-03 20:43 | 42.59205 | -3.30344 | 37993 ft | 495 kts | 56° |
| 2026-05-03 20:43 | 42.63074 | -3.22609 | 37991 ft | 495 kts | 56° |
| 2026-05-03 20:44 | 42.66913 | -3.14916 | 37989 ft | 495 kts | 56° |
| 2026-05-03 20:44 | 42.70772 | -3.07175 | 37988 ft | 495 kts | 56° |
| 2026-05-03 20:45 | 42.74636 | -2.99409 | 37985 ft | 495 kts | 56° |
| 2026-05-03 20:45 | 42.78478 | -2.91644 | 37985 ft | 495 kts | 56° |
| 2026-05-03 20:46 | 42.82316 | -2.83857 | 37989 ft | 495 kts | 56° |
| 2026-05-03 20:46 | 42.86157 | -2.76073 | 37984 ft | 495 kts | 56° |
| 2026-05-03 20:47 | 42.89988 | -2.68292 | 37986 ft | 495 kts | 56° |
| 2026-05-03 20:47 | 42.93811 | -2.60487 | 37985 ft | 495 kts | 57° |
| 2026-05-03 20:48 | 42.97624 | -2.52667 | 37986 ft | 495 kts | 57° |
| 2026-05-03 20:48 | 43.01432 | -2.44846 | 37970 ft | 494 kts | 57° |
| 2026-05-03 20:49 | 43.05240 | -2.37012 | 37978 ft | 495 kts | 57° |
| 2026-05-03 20:49 | 43.09055 | -2.29172 | 37983 ft | 495 kts | 57° |
| 2026-05-03 20:50 | 43.12862 | -2.21308 | 37978 ft | 495 kts | 57° |
| 2026-05-03 20:50 | 43.16649 | -2.13435 | 37977 ft | 496 kts | 57° |
| 2026-05-03 20:51 | 43.20416 | -2.05599 | 37975 ft | 496 kts | 57° |
| 2026-05-03 20:51 | 43.24205 | -1.97695 | 37976 ft | 496 kts | 57° |
| 2026-05-03 20:52 | 43.27994 | -1.89783 | 37978 ft | 496 kts | 57° |
| 2026-05-03 20:52 | 43.31781 | -1.81864 | 37934 ft | 495 kts | 57° |
| 2026-05-03 20:52 | 43.33668 | -1.77906 | 37608 ft | 495 kts | 57° |
| 2026-05-03 20:53 | 43.35557 | -1.73934 | 36859 ft | 498 kts | 58° |
| 2026-05-03 20:53 | 43.37458 | -1.69956 | 36089 ft | 500 kts | 57° |
| 2026-05-03 20:53 | 43.39386 | -1.65966 | 35241 ft | 503 kts | 57° |
| 2026-05-03 20:53 | 43.41340 | -1.61949 | 34388 ft | 507 kts | 58° |
| 2026-05-03 20:54 | 43.43313 | -1.57905 | 33515 ft | 510 kts | 58° |
| 2026-05-03 20:54 | 43.47691 | -1.50365 | 32347 ft | 502 kts | 43° |
| 2026-05-03 20:54 | 43.50384 | -1.47342 | 31736 ft | 498 kts | 35° |
| 2026-05-03 20:55 | 43.53154 | -1.44619 | 31144 ft | 494 kts | 35° |
| 2026-05-03 20:55 | 43.55935 | -1.41867 | 30536 ft | 490 kts | 36° |
| 2026-05-03 20:55 | 43.58692 | -1.39128 | 29913 ft | 487 kts | 36° |
| 2026-05-03 20:55 | 43.61425 | -1.36402 | 29294 ft | 482 kts | 36° |
| 2026-05-03 20:56 | 43.64128 | -1.33700 | 28696 ft | 477 kts | 36° |
| 2026-05-03 20:56 | 43.66797 | -1.31031 | 28133 ft | 472 kts | 36° |
| 2026-05-03 20:56 | 43.69426 | -1.28407 | 27963 ft | 458 kts | 36° |
| 2026-05-03 20:56 | 43.71986 | -1.25856 | 27532 ft | 452 kts | 36° |
| 2026-05-03 20:57 | 43.74527 | -1.23320 | 26946 ft | 449 kts | 36° |
| 2026-05-03 20:57 | 43.77050 | -1.20796 | 26389 ft | 446 kts | 36° |
| 2026-05-03 20:57 | 43.79538 | -1.18302 | 25848 ft | 439 kts | 36° |
| 2026-05-03 20:57 | 43.82001 | -1.15831 | 25330 ft | 435 kts | 37° |
| 2026-05-03 20:58 | 43.84438 | -1.13383 | 24806 ft | 432 kts | 37° |
| 2026-05-03 20:58 | 43.86859 | -1.10947 | 24305 ft | 425 kts | 37° |
| 2026-05-03 20:58 | 43.89236 | -1.08553 | 23868 ft | 420 kts | 37° |
| 2026-05-03 20:58 | 43.91589 | -1.06183 | 23414 ft | 416 kts | 37° |
| 2026-05-03 20:59 | 43.93919 | -1.03835 | 22875 ft | 412 kts | 37° |
| 2026-05-03 20:59 | 43.96224 | -1.01507 | 22329 ft | 408 kts | 37° |
| 2026-05-03 20:59 | 43.98475 | -0.99233 | 21834 ft | 404 kts | 37° |
| 2026-05-03 20:59 | 44.00736 | -0.96947 | 21340 ft | 400 kts | 37° |
| 2026-05-03 21:00 | 44.02969 | -0.94686 | 20856 ft | 396 kts | 37° |
| 2026-05-03 21:00 | 44.03724 | -0.93921 | 20697 ft | 395 kts | 37° |
| 2026-05-03 21:00 | 44.07389 | -0.90203 | 19916 ft | 390 kts | 37° |
| 2026-05-03 21:00 | 44.09573 | -0.87985 | 19441 ft | 387 kts | 37° |
| 2026-05-03 21:01 | 44.11741 | -0.85783 | 18962 ft | 385 kts | 37° |
| 2026-05-03 21:01 | 44.12476 | -0.85036 | 18794 ft | 386 kts | 37° |
| 2026-05-03 21:02 | 44.19743 | -0.77633 | 17081 ft | 383 kts | 36° |
| 2026-05-03 21:02 | 44.21916 | -0.75414 | 16505 ft | 383 kts | 36° |
| 2026-05-03 21:02 | 44.24038 | -0.73245 | 15946 ft | 383 kts | 36° |
| 2026-05-03 21:02 | 44.26208 | -0.70996 | 15396 ft | 383 kts | 36° |
| 2026-05-03 21:03 | 44.28345 | -0.68826 | 14854 ft | 375 kts | 34° |
| 2026-05-03 21:03 | 44.30478 | -0.66848 | 14322 ft | 361 kts | 32° |
| 2026-05-03 21:03 | 44.32583 | -0.65030 | 13801 ft | 351 kts | 31° |
| 2026-05-03 21:03 | 44.34632 | -0.63315 | 13235 ft | 346 kts | 30° |
| 2026-05-03 21:04 | 44.36683 | -0.61602 | 12657 ft | 342 kts | 31° |
| 2026-05-03 21:04 | 44.38707 | -0.59893 | 12094 ft | 339 kts | 31° |
| 2026-05-03 21:04 | 44.40724 | -0.58164 | 11544 ft | 341 kts | 31° |
| 2026-05-03 21:04 | 44.42747 | -0.56407 | 10980 ft | 343 kts | 32° |
| 2026-05-03 21:05 | 44.44750 | -0.54654 | 10449 ft | 334 kts | 32° |
| 2026-05-03 21:05 | 44.46690 | -0.52946 | 9925 ft | 325 kts | 32° |
| 2026-05-03 21:05 | 44.48571 | -0.51287 | 9398 ft | 314 kts | 32° |
| 2026-05-03 21:05 | 44.50352 | -0.49719 | 9249 ft | 291 kts | 32° |
| 2026-05-03 21:06 | 44.52013 | -0.48274 | 9101 ft | 272 kts | 28° |
| 2026-05-03 21:06 | 44.53770 | -0.47532 | 8980 ft | 263 kts | 360° |
| 2026-05-03 21:06 | 44.55522 | -0.48041 | 8964 ft | 257 kts | 329° |
| 2026-05-03 21:06 | 44.56849 | -0.49656 | 8965 ft | 252 kts | 300° |
| 2026-05-03 21:07 | 44.57403 | -0.51927 | 8973 ft | 246 kts | 269° |
| 2026-05-03 21:07 | 44.57167 | -0.54280 | 8972 ft | 244 kts | 253° |
| 2026-05-03 21:07 | 44.56713 | -0.56576 | 8972 ft | 244 kts | 252° |
| 2026-05-03 21:07 | 44.56233 | -0.58860 | 8972 ft | 245 kts | 251° |
| 2026-05-03 21:08 | 44.55746 | -0.61145 | 8969 ft | 245 kts | 251° |
| 2026-05-03 21:08 | 44.55257 | -0.63432 | 8970 ft | 245 kts | 251° |
| 2026-05-03 21:08 | 44.54772 | -0.65693 | 8967 ft | 245 kts | 251° |
| 2026-05-03 21:08 | 44.54288 | -0.67942 | 8959 ft | 233 kts | 251° |
| 2026-05-03 21:09 | 44.53829 | -0.70091 | 8969 ft | 229 kts | 251° |
| 2026-05-03 21:09 | 44.53372 | -0.72226 | 8966 ft | 229 kts | 251° |
| 2026-05-03 21:09 | 44.52914 | -0.74359 | 8968 ft | 228 kts | 251° |
| 2026-05-03 21:09 | 44.52456 | -0.76491 | 8968 ft | 228 kts | 251° |
| 2026-05-03 21:10 | 44.51999 | -0.78620 | 8969 ft | 229 kts | 251° |
| 2026-05-03 21:10 | 44.51314 | -0.80595 | 8848 ft | 224 kts | 226° |
| 2026-05-03 21:10 | 44.50147 | -0.82009 | 8507 ft | 223 kts | 222° |
| 2026-05-03 21:10 | 44.49340 | -0.83831 | 8190 ft | 224 kts | 255° |
| 2026-05-03 21:11 | 44.49398 | -0.85995 | 7869 ft | 227 kts | 287° |
| 2026-05-03 21:11 | 44.50045 | -0.88018 | 7430 ft | 230 kts | 295° |
| 2026-05-03 21:11 | 44.50805 | -0.89990 | 7122 ft | 230 kts | 300° |
| 2026-05-03 21:11 | 44.51915 | -0.91591 | 6851 ft | 231 kts | 328° |
| 2026-05-03 21:12 | 44.53407 | -0.92298 | 6556 ft | 227 kts | 356° |
| 2026-05-03 21:12 | 44.54958 | -0.91951 | 6126 ft | 229 kts | 20° |
| 2026-05-03 21:12 | 44.56477 | -0.91195 | 5744 ft | 227 kts | 20° |
| 2026-05-03 21:12 | 44.57832 | -0.90502 | 5622 ft | 214 kts | 21° |
| 2026-05-03 21:13 | 44.59202 | -0.89798 | 5344 ft | 210 kts | 21° |
| 2026-05-03 21:13 | 44.60604 | -0.89080 | 4847 ft | 217 kts | 21° |
| 2026-05-03 21:13 | 44.62000 | -0.88369 | 4508 ft | 208 kts | 21° |
| 2026-05-03 21:13 | 44.63337 | -0.87692 | 4256 ft | 202 kts | 21° |
| 2026-05-03 21:14 | 44.64655 | -0.87023 | 4019 ft | 200 kts | 21° |
| 2026-05-03 21:14 | 44.65959 | -0.86362 | 3790 ft | 199 kts | 21° |
| 2026-05-03 21:14 | 44.67259 | -0.85703 | 3567 ft | 198 kts | 21° |
| 2026-05-03 21:14 | 44.68556 | -0.85047 | 3331 ft | 198 kts | 21° |
| 2026-05-03 21:15 | 44.69846 | -0.84394 | 3103 ft | 197 kts | 21° |
| 2026-05-03 21:15 | 44.71123 | -0.83748 | 2900 ft | 194 kts | 21° |
| 2026-05-03 21:15 | 44.72392 | -0.83105 | 2656 ft | 193 kts | 21° |
| 2026-05-03 21:15 | 44.73646 | -0.82468 | 2428 ft | 191 kts | 21° |
| 2026-05-03 21:16 | 44.74877 | -0.81841 | 2202 ft | 190 kts | 21° |
| 2026-05-03 21:16 | 44.76098 | -0.81111 | 1992 ft | 188 kts | 36° |
| 2026-05-03 21:16 | 44.77022 | -0.79893 | 1716 ft | 179 kts | 47° |
| 2026-05-03 21:16 | 44.77874 | -0.78675 | 1442 ft | 166 kts | 47° |
| 2026-05-03 21:17 | 44.78649 | -0.77567 | 1194 ft | 156 kts | 47° |
| 2026-05-03 21:17 | 44.79151 | -0.76851 | 1042 ft | 150 kts | 47° |
| 2026-05-03 21:17 | 44.80104 | -0.75489 | 753 ft | 145 kts | 47° |
| 2026-05-03 21:17 | 44.80807 | -0.74485 | 546 ft | 143 kts | 47° |
| 2026-05-03 21:18 | 44.81501 | -0.73491 | 330 ft | 142 kts | 48° |
| 2026-05-03 21:18 | 44.82183 | -0.72495 | 171 ft | 138 kts | 48° |
| 2026-05-03 21:18 | 44.82681 | -0.71792 | 168 ft | 63 kts | 45° |
| 2026-05-03 21:18 | 44.82885 | -0.71499 | 165 ft | 34 kts | 45° |
| 2026-05-03 21:19 | 44.83011 | -0.71294 | 164 ft | 19 kts | 81° |
| 2026-05-03 21:19 | 44.82998 | -0.71207 | 163 ft | 5 kts | 107° |
| 2026-05-03 21:19 | 44.82991 | -0.71174 | 163 ft | 2 kts | 107° |
| 2026-05-03 21:19 | 44.82989 | -0.71169 | 163 ft | 0 kts | 107° |
| 2026-05-03 21:20 | 44.82975 | -0.71102 | 164 ft | 14 kts | 107° |
| 2026-05-03 21:20 | 44.82939 | -0.70934 | 165 ft | 19 kts | 106° |
| 2026-05-03 21:20 | 44.82901 | -0.70752 | 166 ft | 20 kts | 105° |
| 2026-05-03 21:20 | 44.82866 | -0.70561 | 167 ft | 20 kts | 99° |
| 2026-05-03 21:21 | 44.82886 | -0.70377 | 167 ft | 19 kts | 107° |
| 2026-05-03 21:21 | 44.82848 | -0.70199 | 168 ft | 19 kts | 107° |
| 2026-05-03 21:21 | 44.82809 | -0.70022 | 168 ft | 19 kts | 105° |
| 2026-05-03 21:21 | 44.82776 | -0.69853 | 169 ft | 12 kts | 103° |
| 2026-05-03 21:22 | 44.82775 | -0.69805 | 168 ft | 1 kts | 46° |
| 2026-05-03 21:22 | 44.82786 | -0.69795 | 168 ft | 4 kts | 31° |
| 2026-05-03 21:22 | 44.82804 | -0.69786 | 168 ft | 1 kts | 17° |
| 2026-05-03 21:22 | 44.82820 | -0.69779 | 168 ft | 4 kts | 16° |
| 2026-05-03 21:23 | 44.82840 | -0.69771 | 168 ft | 0 kts | 16° |
| 2026-05-03 21:23 | 44.82841 | -0.69770 | 168 ft | 0 kts | 15° |
| 2026-05-03 21:23 | 44.82847 | -0.69768 | 168 ft | 0 kts | 15° |
| 2026-05-03 21:24 | 44.82849 | -0.69767 | 168 ft | 0 kts | 15° |